sensor_id;sensor_type;location;lat;lon;timestamp;temperature;humidity
13598;DHT22;38563;54.258;12.574;2023-04-01T00:00:58;5.40;99.90
13598;DHT22;38563;54.258;12.574;2023-04-01T00:03:27;5.40;99.90
13598;DHT22;38563;54.258;12.574;2023-04-01T00:05:55;5.40;99.90
13598;DHT22;38563;54.258;12.574;2023-04-01T00:08:24;5.40;99.90
13598;DHT22;38563;54.258;12.574;2023-04-01T00:10:52;5.40;99.90
13598;DHT22;38563;54.258;12.574;2023-04-01T00:13:19;5.40;99.90
13598;DHT22;38563;54.258;12.574;2023-04-01T00:15:46;5.30;99.90
13598;DHT22;38563;54.258;12.574;2023-04-01T00:18:12;5.30;99.90
13598;DHT22;38563;54.258;12.574;2023-04-01T00:20:43;5.20;99.90
13598;DHT22;38563;54.258;12.574;2023-04-01T00:23:10;5.20;99.90
13598;DHT22;38563;54.258;12.574;2023-04-01T00:25:38;5.10;99.90
13598;DHT22;38563;54.258;12.574;2023-04-01T00:28:05;5.20;99.90
13598;DHT22;38563;54.258;12.574;2023-04-01T00:30:32;5.10;99.90
13598;DHT22;38563;54.258;12.574;2023-04-01T00:32:59;5.10;99.90
13598;DHT22;38563;54.258;12.574;2023-04-01T00:35:25;5.10;99.90
13598;DHT22;38563;54.258;12.574;2023-04-01T00:37:52;5.10;99.90
13598;DHT22;38563;54.258;12.574;2023-04-01T00:40:28;5.10;99.90
13598;DHT22;38563;54.258;12.574;2023-04-01T00:42:56;5.10;99.90
13598;DHT22;38563;54.258;12.574;2023-04-01T00:45:28;5.00;99.90
13598;DHT22;38563;54.258;12.574;2023-04-01T00:47:55;5.00;99.90
13598;DHT22;38563;54.258;12.574;2023-04-01T00:50:23;5.00;99.90
13598;DHT22;38563;54.258;12.574;2023-04-01T00:52:52;5.00;99.90
13598;DHT22;38563;54.258;12.574;2023-04-01T00:55:20;5.00;99.90
13598;DHT22;38563;54.258;12.574;2023-04-01T00:57:48;5.00;99.90
13598;DHT22;38563;54.258;12.574;2023-04-01T01:00:18;5.00;99.90
13598;DHT22;38563;54.258;12.574;2023-04-01T01:02:47;4.90;99.90
13598;DHT22;38563;54.258;12.574;2023-04-01T01:05:18;4.90;99.90
13598;DHT22;38563;54.258;12.574;2023-04-01T01:07:53;4.90;99.90
13598;DHT22;38563;54.258;12.574;2023-04-01T01:10:29;4.90;99.90
13598;DHT22;38563;54.258;12.574;2023-04-01T01:13:02;4.90;99.90
13598;DHT22;38563;54.258;12.574;2023-04-01T01:15:36;4.90;99.90
13598;DHT22;38563;54.258;12.574;2023-04-01T01:18:09;4.80;99.90
13598;DHT22;38563;54.258;12.574;2023-04-01T01:21:11;4.80;99.90
13598;DHT22;38563;54.258;12.574;2023-04-01T01:24:06;4.80;99.90
13598;DHT22;38563;54.258;12.574;2023-04-01T01:26:44;4.80;99.90
13598;DHT22;38563;54.258;12.574;2023-04-01T01:29:34;4.80;99.90
13598;DHT22;38563;54.258;12.574;2023-04-01T01:32:12;4.70;99.90
13598;DHT22;38563;54.258;12.574;2023-04-01T01:34:50;4.70;99.90
13598;DHT22;38563;54.258;12.574;2023-04-01T01:37:22;4.70;99.90
13598;DHT22;38563;54.258;12.574;2023-04-01T01:39:53;4.70;99.90
13598;DHT22;38563;54.258;12.574;2023-04-01T01:42:22;4.70;99.90
13598;DHT22;38563;54.258;12.574;2023-04-01T01:44:52;4.70;99.90
13598;DHT22;38563;54.258;12.574;2023-04-01T01:47:21;4.60;99.90
13598;DHT22;38563;54.258;12.574;2023-04-01T01:49:49;4.60;99.90
13598;DHT22;38563;54.258;12.574;2023-04-01T01:52:17;4.60;99.90
13598;DHT22;38563;54.258;12.574;2023-04-01T01:54:49;4.60;99.90
13598;DHT22;38563;54.258;12.574;2023-04-01T01:57:19;4.60;99.90
13598;DHT22;38563;54.258;12.574;2023-04-01T01:59:52;4.60;99.90
13598;DHT22;38563;54.258;12.574;2023-04-01T02:02:25;4.60;99.90
13598;DHT22;38563;54.258;12.574;2023-04-01T02:04:53;4.60;99.90
13598;DHT22;38563;54.258;12.574;2023-04-01T02:07:23;4.60;99.90
13598;DHT22;38563;54.258;12.574;2023-04-01T02:09:53;4.60;99.90
13598;DHT22;38563;54.258;12.574;2023-04-01T02:12:22;4.50;99.90
13598;DHT22;38563;54.258;12.574;2023-04-01T02:14:55;4.50;99.90
13598;DHT22;38563;54.258;12.574;2023-04-01T02:17:25;4.50;99.90
13598;DHT22;38563;54.258;12.574;2023-04-01T02:19:56;4.50;99.90
13598;DHT22;38563;54.258;12.574;2023-04-01T02:22:27;4.50;99.90
13598;DHT22;38563;54.258;12.574;2023-04-01T02:24:59;4.50;99.90
13598;DHT22;38563;54.258;12.574;2023-04-01T02:27:28;4.50;99.90
13598;DHT22;38563;54.258;12.574;2023-04-01T02:29:55;4.40;99.90
13598;DHT22;38563;54.258;12.574;2023-04-01T02:32:22;4.40;99.90
13598;DHT22;38563;54.258;12.574;2023-04-01T02:34:49;4.40;99.90
13598;DHT22;38563;54.258;12.574;2023-04-01T02:37:17;4.40;99.90
13598;DHT22;38563;54.258;12.574;2023-04-01T02:39:44;4.40;99.90
13598;DHT22;38563;54.258;12.574;2023-04-01T02:42:13;4.40;99.90
13598;DHT22;38563;54.258;12.574;2023-04-01T02:44:40;4.30;99.90
13598;DHT22;38563;54.258;12.574;2023-04-01T02:47:06;4.30;99.90
13598;DHT22;38563;54.258;12.574;2023-04-01T02:49:33;4.30;99.90
13598;DHT22;38563;54.258;12.574;2023-04-01T02:52:00;4.30;99.90
13598;DHT22;38563;54.258;12.574;2023-04-01T02:54:26;4.30;99.90
13598;DHT22;38563;54.258;12.574;2023-04-01T02:56:53;4.30;99.90
13598;DHT22;38563;54.258;12.574;2023-04-01T02:59:21;4.30;99.90
13598;DHT22;38563;54.258;12.574;2023-04-01T03:01:48;4.30;99.90
13598;DHT22;38563;54.258;12.574;2023-04-01T03:04:15;4.30;99.90
13598;DHT22;38563;54.258;12.574;2023-04-01T03:06:41;4.30;99.90
13598;DHT22;38563;54.258;12.574;2023-04-01T03:09:08;4.30;99.90
13598;DHT22;38563;54.258;12.574;2023-04-01T03:11:35;4.30;99.90
13598;DHT22;38563;54.258;12.574;2023-04-01T03:14:02;4.30;99.90
13598;DHT22;38563;54.258;12.574;2023-04-01T03:16:30;4.30;99.90
13598;DHT22;38563;54.258;12.574;2023-04-01T03:18:56;4.30;99.90
13598;DHT22;38563;54.258;12.574;2023-04-01T03:21:25;4.30;99.90
13598;DHT22;38563;54.258;12.574;2023-04-01T03:23:52;4.30;99.90
13598;DHT22;38563;54.258;12.574;2023-04-01T03:26:19;4.30;99.90
13598;DHT22;38563;54.258;12.574;2023-04-01T03:28:47;4.30;99.90
13598;DHT22;38563;54.258;12.574;2023-04-01T03:31:14;4.30;99.90
13598;DHT22;38563;54.258;12.574;2023-04-01T03:33:49;4.30;99.90
13598;DHT22;38563;54.258;12.574;2023-04-01T03:36:16;4.30;99.90
13598;DHT22;38563;54.258;12.574;2023-04-01T03:38:44;4.30;99.90
13598;DHT22;38563;54.258;12.574;2023-04-01T03:41:16;4.20;99.90
13598;DHT22;38563;54.258;12.574;2023-04-01T03:43:44;4.20;99.90
13598;DHT22;38563;54.258;12.574;2023-04-01T03:46:11;4.20;99.90
13598;DHT22;38563;54.258;12.574;2023-04-01T03:48:38;4.20;99.90
13598;DHT22;38563;54.258;12.574;2023-04-01T03:51:08;4.30;99.90
13598;DHT22;38563;54.258;12.574;2023-04-01T03:53:35;4.30;99.90
13598;DHT22;38563;54.258;12.574;2023-04-01T03:56:05;4.20;99.90
13598;DHT22;38563;54.258;12.574;2023-04-01T03:58:34;4.30;99.90
13598;DHT22;38563;54.258;12.574;2023-04-01T04:01:02;4.30;99.90
13598;DHT22;38563;54.258;12.574;2023-04-01T04:03:31;4.20;99.90
13598;DHT22;38563;54.258;12.574;2023-04-01T04:05:57;4.20;99.90
13598;DHT22;38563;54.258;12.574;2023-04-01T04:08:26;4.20;99.90
13598;DHT22;38563;54.258;12.574;2023-04-01T04:10:56;4.20;99.90
13598;DHT22;38563;54.258;12.574;2023-04-01T04:13:23;4.20;99.90
13598;DHT22;38563;54.258;12.574;2023-04-01T04:15:58;4.20;99.90
13598;DHT22;38563;54.258;12.574;2023-04-01T04:18:25;4.30;99.90
13598;DHT22;38563;54.258;12.574;2023-04-01T04:20:52;4.30;99.90
13598;DHT22;38563;54.258;12.574;2023-04-01T04:23:19;4.30;99.90
13598;DHT22;38563;54.258;12.574;2023-04-01T04:25:55;4.30;99.90
13598;DHT22;38563;54.258;12.574;2023-04-01T04:28:22;4.20;99.90
13598;DHT22;38563;54.258;12.574;2023-04-01T04:30:49;4.20;99.90
13598;DHT22;38563;54.258;12.574;2023-04-01T04:33:16;4.20;99.90
13598;DHT22;38563;54.258;12.574;2023-04-01T04:35:43;4.20;99.90
13598;DHT22;38563;54.258;12.574;2023-04-01T04:38:10;4.20;99.90
13598;DHT22;38563;54.258;12.574;2023-04-01T04:40:38;4.20;99.90
13598;DHT22;38563;54.258;12.574;2023-04-01T04:43:06;4.20;99.90
13598;DHT22;38563;54.258;12.574;2023-04-01T04:45:33;4.20;99.90
13598;DHT22;38563;54.258;12.574;2023-04-01T04:48:00;4.20;99.90
13598;DHT22;38563;54.258;12.574;2023-04-01T04:50:27;4.20;99.90
13598;DHT22;38563;54.258;12.574;2023-04-01T04:52:54;4.30;99.90
13598;DHT22;38563;54.258;12.574;2023-04-01T04:55:22;4.20;99.90
13598;DHT22;38563;54.258;12.574;2023-04-01T04:58:01;4.20;99.90
13598;DHT22;38563;54.258;12.574;2023-04-01T05:00:29;4.20;99.90
13598;DHT22;38563;54.258;12.574;2023-04-01T05:02:59;4.30;99.90
13598;DHT22;38563;54.258;12.574;2023-04-01T05:05:26;4.20;99.90
13598;DHT22;38563;54.258;12.574;2023-04-01T05:07:53;4.30;99.90
13598;DHT22;38563;54.258;12.574;2023-04-01T05:10:19;4.20;99.90
13598;DHT22;38563;54.258;12.574;2023-04-01T05:12:47;4.30;99.90
13598;DHT22;38563;54.258;12.574;2023-04-01T05:15:17;4.30;99.90
13598;DHT22;38563;54.258;12.574;2023-04-01T05:17:46;4.10;99.90
13598;DHT22;38563;54.258;12.574;2023-04-01T05:20:14;4.20;99.90
13598;DHT22;38563;54.258;12.574;2023-04-01T05:22:42;4.30;99.90
13598;DHT22;38563;54.258;12.574;2023-04-01T05:25:09;4.20;99.90
13598;DHT22;38563;54.258;12.574;2023-04-01T05:27:36;4.20;99.90
13598;DHT22;38563;54.258;12.574;2023-04-01T05:30:04;4.20;99.90
13598;DHT22;38563;54.258;12.574;2023-04-01T05:32:55;4.20;99.90
13598;DHT22;38563;54.258;12.574;2023-04-01T05:35:23;4.20;99.90
13598;DHT22;38563;54.258;12.574;2023-04-01T05:37:50;4.30;99.90
13598;DHT22;38563;54.258;12.574;2023-04-01T05:40:17;4.20;99.90
13598;DHT22;38563;54.258;12.574;2023-04-01T05:42:44;4.20;99.90
13598;DHT22;38563;54.258;12.574;2023-04-01T05:45:11;4.20;99.90
13598;DHT22;38563;54.258;12.574;2023-04-01T05:48:05;4.20;99.90
13598;DHT22;38563;54.258;12.574;2023-04-01T05:50:37;4.20;99.90
13598;DHT22;38563;54.258;12.574;2023-04-01T05:53:06;4.20;99.90
13598;DHT22;38563;54.258;12.574;2023-04-01T05:55:34;4.20;99.90
13598;DHT22;38563;54.258;12.574;2023-04-01T05:58:02;4.20;99.90
13598;DHT22;38563;54.258;12.574;2023-04-01T06:00:29;4.20;99.90
13598;DHT22;38563;54.258;12.574;2023-04-01T06:02:58;4.20;99.90
13598;DHT22;38563;54.258;12.574;2023-04-01T06:05:28;4.10;99.90
13598;DHT22;38563;54.258;12.574;2023-04-01T06:07:58;4.20;99.90
13598;DHT22;38563;54.258;12.574;2023-04-01T06:10:33;4.20;99.90
13598;DHT22;38563;54.258;12.574;2023-04-01T06:13:05;4.20;99.90
13598;DHT22;38563;54.258;12.574;2023-04-01T06:15:36;4.20;99.90
13598;DHT22;38563;54.258;12.574;2023-04-01T06:18:36;4.20;99.90
13598;DHT22;38563;54.258;12.574;2023-04-01T06:21:19;4.20;99.90
13598;DHT22;38563;54.258;12.574;2023-04-01T06:24:05;4.10;99.90
13598;DHT22;38563;54.258;12.574;2023-04-01T06:26:45;4.10;99.90
13598;DHT22;38563;54.258;12.574;2023-04-01T06:29:31;4.10;99.90
13598;DHT22;38563;54.258;12.574;2023-04-01T06:32:20;4.10;99.90
13598;DHT22;38563;54.258;12.574;2023-04-01T06:34:59;4.10;99.90
13598;DHT22;38563;54.258;12.574;2023-04-01T06:37:45;4.10;99.90
13598;DHT22;38563;54.258;12.574;2023-04-01T06:40:41;4.10;99.90
13598;DHT22;38563;54.258;12.574;2023-04-01T06:43:17;4.10;99.90
13598;DHT22;38563;54.258;12.574;2023-04-01T06:46:10;4.10;99.90
13598;DHT22;38563;54.258;12.574;2023-04-01T06:49:19;4.10;99.90
13598;DHT22;38563;54.258;12.574;2023-04-01T06:52:26;4.10;99.90
13598;DHT22;38563;54.258;12.574;2023-04-01T06:55:36;4.10;99.90
13598;DHT22;38563;54.258;12.574;2023-04-01T06:58:22;4.10;99.90
13598;DHT22;38563;54.258;12.574;2023-04-01T07:00:51;4.10;99.90
13598;DHT22;38563;54.258;12.574;2023-04-01T07:03:23;4.10;99.90
13598;DHT22;38563;54.258;12.574;2023-04-01T07:05:57;4.10;99.90
13598;DHT22;38563;54.258;12.574;2023-04-01T07:08:27;4.20;99.90
13598;DHT22;38563;54.258;12.574;2023-04-01T07:10:59;4.10;99.90
13598;DHT22;38563;54.258;12.574;2023-04-01T07:13:50;4.20;99.90
13598;DHT22;38563;54.258;12.574;2023-04-01T07:16:21;4.20;99.90
13598;DHT22;38563;54.258;12.574;2023-04-01T07:18:54;4.10;99.90
13598;DHT22;38563;54.258;12.574;2023-04-01T07:21:29;4.10;99.90
13598;DHT22;38563;54.258;12.574;2023-04-01T07:24:04;4.10;99.90
13598;DHT22;38563;54.258;12.574;2023-04-01T07:26:40;4.10;99.90
13598;DHT22;38563;54.258;12.574;2023-04-01T07:29:14;4.00;99.90
13598;DHT22;38563;54.258;12.574;2023-04-01T07:32:17;4.00;99.90
13598;DHT22;38563;54.258;12.574;2023-04-01T07:35:02;3.90;99.90
13598;DHT22;38563;54.258;12.574;2023-04-01T07:37:36;4.00;99.90
13598;DHT22;38563;54.258;12.574;2023-04-01T07:40:16;4.00;99.90
13598;DHT22;38563;54.258;12.574;2023-04-01T07:42:57;4.00;99.90
13598;DHT22;38563;54.258;12.574;2023-04-01T07:45:31;3.90;99.90
13598;DHT22;38563;54.258;12.574;2023-04-01T07:48:17;3.90;99.90
13598;DHT22;38563;54.258;12.574;2023-04-01T07:50:52;3.90;99.90
13598;DHT22;38563;54.258;12.574;2023-04-01T07:53:27;3.90;99.90
13598;DHT22;38563;54.258;12.574;2023-04-01T07:56:02;4.00;99.90
13598;DHT22;38563;54.258;12.574;2023-04-01T07:58:43;4.00;99.90
13598;DHT22;38563;54.258;12.574;2023-04-01T08:01:28;4.00;99.90
13598;DHT22;38563;54.258;12.574;2023-04-01T08:04:13;4.00;99.90
13598;DHT22;38563;54.258;12.574;2023-04-01T08:06:44;4.00;99.90
13598;DHT22;38563;54.258;12.574;2023-04-01T08:09:17;4.00;99.90
13598;DHT22;38563;54.258;12.574;2023-04-01T08:12:12;4.00;99.90
13598;DHT22;38563;54.258;12.574;2023-04-01T08:15:10;4.10;99.90
13598;DHT22;38563;54.258;12.574;2023-04-01T08:18:00;4.10;99.90
13598;DHT22;38563;54.258;12.574;2023-04-01T08:20:34;4.10;99.90
13598;DHT22;38563;54.258;12.574;2023-04-01T08:23:10;4.00;99.90
13598;DHT22;38563;54.258;12.574;2023-04-01T08:25:41;4.00;99.90
13598;DHT22;38563;54.258;12.574;2023-04-01T08:28:16;4.00;99.90
13598;DHT22;38563;54.258;12.574;2023-04-01T08:30:49;4.00;99.90
13598;DHT22;38563;54.258;12.574;2023-04-01T08:33:22;4.10;99.90
13598;DHT22;38563;54.258;12.574;2023-04-01T08:35:57;4.10;99.90
13598;DHT22;38563;54.258;12.574;2023-04-01T08:38:30;4.10;99.90
13598;DHT22;38563;54.258;12.574;2023-04-01T08:41:07;4.10;99.90
13598;DHT22;38563;54.258;12.574;2023-04-01T08:44:29;4.10;99.90
13598;DHT22;38563;54.258;12.574;2023-04-01T08:47:30;4.00;99.90
13598;DHT22;38563;54.258;12.574;2023-04-01T08:50:31;4.10;99.90
13598;DHT22;38563;54.258;12.574;2023-04-01T08:53:23;4.00;99.90
13598;DHT22;38563;54.258;12.574;2023-04-01T08:56:01;4.00;99.90
13598;DHT22;38563;54.258;12.574;2023-04-01T09:01:51;4.00;99.90
13598;DHT22;38563;54.258;12.574;2023-04-01T09:07:46;4.00;99.90
13598;DHT22;38563;54.258;12.574;2023-04-01T09:13:52;4.00;99.90
13598;DHT22;38563;54.258;12.574;2023-04-01T09:16:42;4.00;99.90
13598;DHT22;38563;54.258;12.574;2023-04-01T09:19:21;4.10;99.90
13598;DHT22;38563;54.258;12.574;2023-04-01T09:22:13;4.10;99.90
13598;DHT22;38563;54.258;12.574;2023-04-01T09:27:43;4.00;99.90
13598;DHT22;38563;54.258;12.574;2023-04-01T09:30:34;4.10;99.90
13598;DHT22;38563;54.258;12.574;2023-04-01T09:33:22;4.10;99.90
13598;DHT22;38563;54.258;12.574;2023-04-01T09:36:03;4.00;99.90
13598;DHT22;38563;54.258;12.574;2023-04-01T09:38:44;4.10;99.90
13598;DHT22;38563;54.258;12.574;2023-04-01T09:41:27;4.10;99.90
13598;DHT22;38563;54.258;12.574;2023-04-01T09:44:03;4.20;99.90
13598;DHT22;38563;54.258;12.574;2023-04-01T09:47:01;4.20;99.90
13598;DHT22;38563;54.258;12.574;2023-04-01T09:49:57;4.20;99.90
13598;DHT22;38563;54.258;12.574;2023-04-01T09:52:31;4.10;99.90
13598;DHT22;38563;54.258;12.574;2023-04-01T09:55:22;4.20;99.90
13598;DHT22;38563;54.258;12.574;2023-04-01T09:58:09;4.20;99.90
13598;DHT22;38563;54.258;12.574;2023-04-01T10:04:36;4.20;99.90
13598;DHT22;38563;54.258;12.574;2023-04-01T10:07:40;4.20;99.90
13598;DHT22;38563;54.258;12.574;2023-04-01T10:10:30;4.20;99.90
13598;DHT22;38563;54.258;12.574;2023-04-01T10:13:36;4.30;99.90
13598;DHT22;38563;54.258;12.574;2023-04-01T10:19:35;4.40;99.90
13598;DHT22;38563;54.258;12.574;2023-04-01T10:22:22;4.40;99.90
13598;DHT22;38563;54.258;12.574;2023-04-01T10:25:16;4.50;99.90
13598;DHT22;38563;54.258;12.574;2023-04-01T10:28:17;4.40;99.90
13598;DHT22;38563;54.258;12.574;2023-04-01T10:37:23;4.30;99.90
13598;DHT22;38563;54.258;12.574;2023-04-01T10:40:29;4.40;99.90
13598;DHT22;38563;54.258;12.574;2023-04-01T10:43:52;4.40;99.90
13598;DHT22;38563;54.258;12.574;2023-04-01T10:46:50;4.40;99.90
13598;DHT22;38563;54.258;12.574;2023-04-01T10:49:39;4.40;99.90
13598;DHT22;38563;54.258;12.574;2023-04-01T10:56:15;4.30;99.90
13598;DHT22;38563;54.258;12.574;2023-04-01T11:07:12;4.40;99.90
13598;DHT22;38563;54.258;12.574;2023-04-01T11:10:18;4.40;99.90
13598;DHT22;38563;54.258;12.574;2023-04-01T11:13:46;4.40;99.90
13598;DHT22;38563;54.258;12.574;2023-04-01T11:19:34;4.40;99.90
13598;DHT22;38563;54.258;12.574;2023-04-01T11:25:20;4.40;99.90
13598;DHT22;38563;54.258;12.574;2023-04-01T11:28:34;4.30;99.90
13598;DHT22;38563;54.258;12.574;2023-04-01T11:31:22;4.40;99.90
13598;DHT22;38563;54.258;12.574;2023-04-01T11:33:54;4.30;99.90
13598;DHT22;38563;54.258;12.574;2023-04-01T11:36:33;4.40;99.90
13598;DHT22;38563;54.258;12.574;2023-04-01T11:39:22;4.40;99.90
13598;DHT22;38563;54.258;12.574;2023-04-01T11:42:37;4.50;99.90
13598;DHT22;38563;54.258;12.574;2023-04-01T11:45:34;4.40;99.90
13598;DHT22;38563;54.258;12.574;2023-04-01T11:48:13;4.30;99.90
13598;DHT22;38563;54.258;12.574;2023-04-01T11:50:55;4.30;99.90
13598;DHT22;38563;54.258;12.574;2023-04-01T11:53:32;4.20;99.90
13598;DHT22;38563;54.258;12.574;2023-04-01T11:56:13;4.20;99.90
13598;DHT22;38563;54.258;12.574;2023-04-01T11:59:01;4.20;99.90
13598;DHT22;38563;54.258;12.574;2023-04-01T12:01:40;4.30;99.90
13598;DHT22;38563;54.258;12.574;2023-04-01T12:04:33;4.30;99.90
13598;DHT22;38563;54.258;12.574;2023-04-01T12:07:09;4.30;99.90
13598;DHT22;38563;54.258;12.574;2023-04-01T12:09:46;4.30;99.90
13598;DHT22;38563;54.258;12.574;2023-04-01T12:12:20;4.30;99.90
13598;DHT22;38563;54.258;12.574;2023-04-01T12:14:58;4.30;99.90
13598;DHT22;38563;54.258;12.574;2023-04-01T12:17:31;4.20;99.90
13598;DHT22;38563;54.258;12.574;2023-04-01T12:20:20;4.20;99.90
13598;DHT22;38563;54.258;12.574;2023-04-01T12:22:54;4.20;99.90
13598;DHT22;38563;54.258;12.574;2023-04-01T12:25:36;4.30;99.90
13598;DHT22;38563;54.258;12.574;2023-04-01T12:28:10;4.30;99.90
13598;DHT22;38563;54.258;12.574;2023-04-01T12:30:53;4.40;99.90
13598;DHT22;38563;54.258;12.574;2023-04-01T12:36:26;4.30;99.90
13598;DHT22;38563;54.258;12.574;2023-04-01T12:39:14;4.30;99.90
13598;DHT22;38563;54.258;12.574;2023-04-01T12:41:51;4.20;99.90
13598;DHT22;38563;54.258;12.574;2023-04-01T12:44:29;4.20;99.90
13598;DHT22;38563;54.258;12.574;2023-04-01T12:47:32;4.20;99.90
13598;DHT22;38563;54.258;12.574;2023-04-01T12:50:23;4.20;99.90
13598;DHT22;38563;54.258;12.574;2023-04-01T12:53:01;4.20;99.90
13598;DHT22;38563;54.258;12.574;2023-04-01T12:55:37;4.10;99.90
13598;DHT22;38563;54.258;12.574;2023-04-01T12:58:23;4.00;99.90
13598;DHT22;38563;54.258;12.574;2023-04-01T13:01:18;4.00;99.90
13598;DHT22;38563;54.258;12.574;2023-04-01T13:04:05;4.10;99.90
13598;DHT22;38563;54.258;12.574;2023-04-01T13:06:43;4.10;99.90
13598;DHT22;38563;54.258;12.574;2023-04-01T13:09:21;4.10;99.90
13598;DHT22;38563;54.258;12.574;2023-04-01T13:12:05;4.20;99.90
13598;DHT22;38563;54.258;12.574;2023-04-01T13:14:50;4.20;99.90
13598;DHT22;38563;54.258;12.574;2023-04-01T13:17:27;4.00;99.90
13598;DHT22;38563;54.258;12.574;2023-04-01T13:20:02;4.00;99.90
13598;DHT22;38563;54.258;12.574;2023-04-01T13:22:41;4.10;99.90
13598;DHT22;38563;54.258;12.574;2023-04-01T13:25:22;4.00;99.90
13598;DHT22;38563;54.258;12.574;2023-04-01T13:27:57;4.00;99.90
13598;DHT22;38563;54.258;12.574;2023-04-01T13:30:31;4.00;99.90
13598;DHT22;38563;54.258;12.574;2023-04-01T13:33:06;4.00;99.90
13598;DHT22;38563;54.258;12.574;2023-04-01T13:35:43;4.00;99.90
13598;DHT22;38563;54.258;12.574;2023-04-01T13:38:26;4.00;99.90
13598;DHT22;38563;54.258;12.574;2023-04-01T13:41:02;4.00;99.90
13598;DHT22;38563;54.258;12.574;2023-04-01T13:43:35;4.00;99.90
13598;DHT22;38563;54.258;12.574;2023-04-01T13:49:17;3.90;99.90
13598;DHT22;38563;54.258;12.574;2023-04-01T13:52:14;3.90;99.90
13598;DHT22;38563;54.258;12.574;2023-04-01T13:55:02;3.80;99.90
13598;DHT22;38563;54.258;12.574;2023-04-01T13:57:44;3.80;99.90
13598;DHT22;38563;54.258;12.574;2023-04-01T14:00:31;3.80;99.90
13598;DHT22;38563;54.258;12.574;2023-04-01T14:03:14;3.80;99.90
13598;DHT22;38563;54.258;12.574;2023-04-01T14:05:54;3.80;99.90
13598;DHT22;38563;54.258;12.574;2023-04-01T14:08:33;3.80;99.90
13598;DHT22;38563;54.258;12.574;2023-04-01T14:11:10;3.70;99.90
13598;DHT22;38563;54.258;12.574;2023-04-01T14:13:46;3.70;99.90
13598;DHT22;38563;54.258;12.574;2023-04-01T14:16:49;3.70;99.90
13598;DHT22;38563;54.258;12.574;2023-04-01T14:19:33;3.80;99.90
13598;DHT22;38563;54.258;12.574;2023-04-01T14:22:13;3.80;99.90
13598;DHT22;38563;54.258;12.574;2023-04-01T14:27:52;3.80;99.90
13598;DHT22;38563;54.258;12.574;2023-04-01T14:30:40;3.80;99.90
13598;DHT22;38563;54.258;12.574;2023-04-01T14:33:23;3.70;99.90
13598;DHT22;38563;54.258;12.574;2023-04-01T14:36:04;3.70;99.90
13598;DHT22;38563;54.258;12.574;2023-04-01T14:38:42;3.70;99.90
13598;DHT22;38563;54.258;12.574;2023-04-01T14:41:20;3.60;99.90
13598;DHT22;38563;54.258;12.574;2023-04-01T14:44:22;3.60;99.90
13598;DHT22;38563;54.258;12.574;2023-04-01T14:47:22;3.60;99.90
13598;DHT22;38563;54.258;12.574;2023-04-01T14:49:52;3.60;99.90
13598;DHT22;38563;54.258;12.574;2023-04-01T14:52:24;3.60;99.90
13598;DHT22;38563;54.258;12.574;2023-04-01T14:54:56;3.60;99.90
13598;DHT22;38563;54.258;12.574;2023-04-01T14:57:25;3.70;99.90
13598;DHT22;38563;54.258;12.574;2023-04-01T14:59:59;3.70;99.90
13598;DHT22;38563;54.258;12.574;2023-04-01T15:02:45;3.60;99.90
13598;DHT22;38563;54.258;12.574;2023-04-01T15:05:19;3.60;99.90
13598;DHT22;38563;54.258;12.574;2023-04-01T15:07:58;3.60;99.90
13598;DHT22;38563;54.258;12.574;2023-04-01T15:10:46;3.60;99.90
13598;DHT22;38563;54.258;12.574;2023-04-01T15:13:24;3.60;99.90
13598;DHT22;38563;54.258;12.574;2023-04-01T15:16:03;3.60;99.90
13598;DHT22;38563;54.258;12.574;2023-04-01T15:18:41;3.60;99.90
13598;DHT22;38563;54.258;12.574;2023-04-01T15:21:24;3.60;99.90
13598;DHT22;38563;54.258;12.574;2023-04-01T15:23:58;3.60;99.90
13598;DHT22;38563;54.258;12.574;2023-04-01T15:26:42;3.70;99.90
13598;DHT22;38563;54.258;12.574;2023-04-01T15:29:28;3.70;99.90
13598;DHT22;38563;54.258;12.574;2023-04-01T15:32:02;3.70;99.90
13598;DHT22;38563;54.258;12.574;2023-04-01T15:34:41;3.70;99.90
13598;DHT22;38563;54.258;12.574;2023-04-01T15:37:16;3.70;99.90
13598;DHT22;38563;54.258;12.574;2023-04-01T15:39:54;3.70;99.90
13598;DHT22;38563;54.258;12.574;2023-04-01T15:42:31;3.70;99.90
13598;DHT22;38563;54.258;12.574;2023-04-01T15:45:11;3.70;99.90
13598;DHT22;38563;54.258;12.574;2023-04-01T15:47:45;3.60;99.90
13598;DHT22;38563;54.258;12.574;2023-04-01T15:53:31;3.60;99.90
13598;DHT22;38563;54.258;12.574;2023-04-01T15:56:16;3.60;99.90
13598;DHT22;38563;54.258;12.574;2023-04-01T15:58:59;3.60;99.90
13598;DHT22;38563;54.258;12.574;2023-04-01T16:01:36;3.60;99.90
13598;DHT22;38563;54.258;12.574;2023-04-01T16:04:23;3.60;99.90
13598;DHT22;38563;54.258;12.574;2023-04-01T16:07:10;3.60;99.90
13598;DHT22;38563;54.258;12.574;2023-04-01T16:10:06;3.60;99.90
13598;DHT22;38563;54.258;12.574;2023-04-01T16:12:49;3.60;99.90
13598;DHT22;38563;54.258;12.574;2023-04-01T16:15:26;3.60;99.90
13598;DHT22;38563;54.258;12.574;2023-04-01T16:18:18;3.60;99.90
13598;DHT22;38563;54.258;12.574;2023-04-01T16:20:53;3.60;99.90
13598;DHT22;38563;54.258;12.574;2023-04-01T16:23:26;3.50;99.90
13598;DHT22;38563;54.258;12.574;2023-04-01T16:26:01;3.50;99.90
13598;DHT22;38563;54.258;12.574;2023-04-01T16:28:31;3.50;99.90
13598;DHT22;38563;54.258;12.574;2023-04-01T16:31:06;3.50;99.90
13598;DHT22;38563;54.258;12.574;2023-04-01T16:33:40;3.50;99.90
13598;DHT22;38563;54.258;12.574;2023-04-01T16:36:21;3.50;99.90
13598;DHT22;38563;54.258;12.574;2023-04-01T16:38:53;3.50;99.90
13598;DHT22;38563;54.258;12.574;2023-04-01T16:41:25;3.50;99.90
13598;DHT22;38563;54.258;12.574;2023-04-01T16:43:57;3.50;99.90
13598;DHT22;38563;54.258;12.574;2023-04-01T16:46:30;3.50;99.90
13598;DHT22;38563;54.258;12.574;2023-04-01T16:49:00;3.50;99.90
13598;DHT22;38563;54.258;12.574;2023-04-01T16:51:44;3.50;99.90
13598;DHT22;38563;54.258;12.574;2023-04-01T16:54:17;3.50;99.90
13598;DHT22;38563;54.258;12.574;2023-04-01T16:56:54;3.40;99.90
13598;DHT22;38563;54.258;12.574;2023-04-01T16:59:24;3.40;99.90
13598;DHT22;38563;54.258;12.574;2023-04-01T17:01:57;3.30;99.90
13598;DHT22;38563;54.258;12.574;2023-04-01T17:04:33;3.30;99.90
13598;DHT22;38563;54.258;12.574;2023-04-01T17:07:16;3.30;99.90
13598;DHT22;38563;54.258;12.574;2023-04-01T17:09:55;3.30;99.90
13598;DHT22;38563;54.258;12.574;2023-04-01T17:12:32;3.30;99.90
13598;DHT22;38563;54.258;12.574;2023-04-01T17:15:10;3.20;99.90
13598;DHT22;38563;54.258;12.574;2023-04-01T17:17:45;3.20;99.90
13598;DHT22;38563;54.258;12.574;2023-04-01T17:20:35;3.20;99.90
13598;DHT22;38563;54.258;12.574;2023-04-01T17:23:14;3.10;99.90
13598;DHT22;38563;54.258;12.574;2023-04-01T17:25:57;3.00;99.90
13598;DHT22;38563;54.258;12.574;2023-04-01T17:28:36;3.10;99.90
13598;DHT22;38563;54.258;12.574;2023-04-01T17:31:17;3.10;99.90